Time;durP1;ratioP1;P1;durP2;ratioP2;P2;SDS_P1;SDS_P2;PMS_P1;PMS_P2;Temp;Humidity;BMP_temperature;BMP_pressure;BME280_temperature;BME280_humidity;BME280_pressure;Samples;Min_cycle;Max_cycle;Signal;HPM_P1;HPM_P2
2022/04/13 00:00:47;;;;;;;16.90;6.40;;;;;3.50;97931.20;;;;110910;1250;41172;-73
2022/04/13 00:03:18;;;;;;;13.90;6.10;;;;;3.50;97928.60;;;;110700;1252;42376;-72
2022/04/13 00:05:49;;;;;;;15.00;6.40;;;;;3.50;97931.20;;;;110746;1253;41543;-73
2022/04/13 00:08:18;;;;;;;14.50;6.70;;;;;3.40;97932.40;;;;110876;1252;41411;-73
2022/04/13 00:10:48;;;;;;;16.50;7.20;;;;;3.30;97929.80;;;;110830;1252;41239;-71
2022/04/13 00:13:19;;;;;;;14.00;7.20;;;;;3.30;97930.00;;;;110867;1251;41143;-73
2022/04/13 00:15:49;;;;;;;14.70;7.10;;;;;3.20;97932.20;;;;110779;1252;41149;-72
2022/04/13 00:18:19;;;;;;;13.50;6.40;;;;;3.20;97931.00;;;;110888;1251;41172;-72
2022/04/13 00:20:50;;;;;;;14.40;6.50;;;;;3.20;97924.00;;;;110865;1250;41138;-72
2022/04/13 00:23:20;;;;;;;14.60;7.00;;;;;3.10;97922.20;;;;110618;1253;40776;-72
2022/04/13 00:25:49;;;;;;;13.20;6.80;;;;;3.04;97925.80;;;;110733;1252;41646;-73
2022/04/13 00:28:20;;;;;;;13.30;6.10;;;;;3.00;97926.20;;;;110710;1252;41265;-74
2022/04/13 00:30:50;;;;;;;14.70;6.00;;;;;3.00;97923.20;;;;110939;1250;41610;-72
2022/04/13 00:33:21;;;;;;;13.80;5.60;;;;;3.00;97918.40;;;;110747;1252;41162;-72
2022/04/13 00:35:55;;;;;;;18.70;7.60;;;;;3.00;97921.60;;;;110595;1253;42469;-72
2022/04/13 00:38:25;;;;;;;16.70;6.40;;;;;3.00;97917.60;;;;110810;1252;41269;-72
2022/04/13 00:40:59;;;;;;;16.10;6.80;;;;;2.90;97920.40;;;;110721;1251;41139;-72
2022/04/13 00:43:29;;;;;;;14.20;6.30;;;;;2.82;97921.00;;;;110666;1253;41157;-72
2022/04/13 00:46:00;;;;;;;16.00;6.40;;;;;2.80;97925.60;;;;110817;1251;41588;-73
2022/04/13 00:48:36;;;;;;;12.00;5.70;;;;;2.70;97922.20;;;;110753;1252;41636;-72
2022/04/13 00:51:07;;;;;;;17.40;6.40;;;;;2.70;97926.20;;;;110759;1252;41258;-72
2022/04/13 00:53:38;;;;;;;15.10;6.40;;;;;2.70;97926.60;;;;110843;1252;41234;-73
2022/04/13 00:56:09;;;;;;;18.30;7.80;;;;;2.64;97924.20;;;;110731;1252;41165;-73
2022/04/13 00:58:39;;;;;;;16.60;8.00;;;;;2.60;97927.00;;;;110781;1252;42165;-73
2022/04/13 01:01:10;;;;;;;13.70;6.90;;;;;2.60;97927.60;;;;110915;1252;41154;-75
2022/04/13 01:03:39;;;;;;;14.60;6.50;;;;;2.60;97927.80;;;;110887;1250;41191;-74
2022/04/13 01:06:10;;;;;;;12.90;6.10;;;;;2.52;97930.60;;;;110783;1253;41223;-72
2022/04/13 01:08:40;;;;;;;13.10;6.00;;;;;2.50;97925.20;;;;110734;1253;41192;-71
2022/04/13 01:11:11;;;;;;;12.90;6.10;;;;;2.50;97925.20;;;;110657;1252;41248;-73
2022/04/13 01:13:41;;;;;;;13.40;6.60;;;;;2.40;97927.60;;;;110731;1252;41277;-72
2022/04/13 01:16:11;;;;;;;11.90;5.70;;;;;2.32;97924.20;;;;110762;1251;41980;-72
2022/04/13 01:18:44;;;;;;;11.40;5.40;;;;;2.30;97919.40;;;;110712;1251;41636;-71
2022/04/13 01:21:16;;;;;;;14.30;6.30;;;;;2.24;97915.00;;;;110880;1250;41348;-73
2022/04/13 01:23:46;;;;;;;13.30;6.10;;;;;2.20;97922.20;;;;110849;1251;41385;-73
2022/04/13 01:26:17;;;;;;;17.60;6.20;;;;;2.20;97917.20;;;;110915;1250;41128;-73
2022/04/13 01:28:48;;;;;;;11.40;5.60;;;;;2.16;97919.00;;;;110676;1253;41171;-73
2022/04/13 01:31:20;;;;;;;14.60;6.30;;;;;2.10;97919.00;;;;110981;1250;41248;-73
2022/04/13 01:33:51;;;;;;;13.40;6.20;;;;;2.10;97922.00;;;;110874;1252;41298;-74
2022/04/13 01:36:21;;;;;;;14.70;6.30;;;;;2.10;97924.60;;;;110861;1252;41162;-74
2022/04/13 01:38:57;;;;;;;12.20;5.40;;;;;2.08;97924.20;;;;110687;1250;41260;-73
2022/04/13 01:41:30;;;;;;;12.70;6.60;;;;;2.00;97925.20;;;;110847;1251;43355;-73
2022/04/13 01:44:10;;;;;;;14.40;7.10;;;;;2.00;97924.40;;;;110820;1250;42568;-73
2022/04/13 01:46:40;;;;;;;13.30;6.50;;;;;2.00;97929.60;;;;110705;1252;42056;-72
2022/04/13 01:49:10;;;;;;;13.30;6.50;;;;;2.00;97928.20;;;;110832;1252;41188;-73
2022/04/13 01:51:41;;;;;;;12.70;6.10;;;;;2.00;97928.80;;;;110685;1252;41546;-74
2022/04/13 01:54:11;;;;;;;15.00;6.30;;;;;1.90;97933.60;;;;110718;1252;41155;-73
2022/04/13 01:56:40;;;;;;;12.70;6.00;;;;;1.90;97935.20;;;;110923;1251;41019;-73
2022/04/13 01:59:11;;;;;;;11.80;4.90;;;;;1.82;97938.60;;;;110945;1251;42391;-73
2022/04/13 02:01:44;;;;;;;12.00;5.80;;;;;1.80;97938.80;;;;110923;1249;41728;-73
2022/04/13 02:04:25;;;;;;;14.30;6.80;;;;;1.80;97944.40;;;;110930;1251;41267;-73
2022/04/13 02:06:55;;;;;;;13.90;6.50;;;;;1.80;97948.00;;;;110791;1251;41155;-73
2022/04/13 02:09:24;;;;;;;12.90;6.10;;;;;1.70;97945.40;;;;110833;1249;41159;-73
2022/04/13 02:11:53;;;;;;;13.70;6.60;;;;;1.70;97943.20;;;;110927;1250;41162;-72
2022/04/13 02:14:24;;;;;;;13.50;6.90;;;;;1.66;97948.80;;;;110961;1250;41627;-74
2022/04/13 02:16:53;;;;;;;13.60;6.60;;;;;1.60;97949.80;;;;110899;1251;41175;-74
2022/04/13 02:19:23;;;;;;;15.60;6.70;;;;;1.60;97953.40;;;;110875;1251;41608;-73
2022/04/13 02:21:54;;;;;;;13.30;6.20;;;;;1.50;97950.60;;;;110853;1250;42301;-74
2022/04/13 02:24:24;;;;;;;14.30;6.80;;;;;1.50;97951.00;;;;110838;1251;41997;-74
2022/04/13 02:26:54;;;;;;;13.80;6.60;;;;;1.50;97956.40;;;;110795;1252;41323;-72
2022/04/13 02:29:24;;;;;;;13.70;6.70;;;;;1.50;97956.20;;;;110913;1252;41932;-74
2022/04/13 02:31:54;;;;;;;13.10;6.30;;;;;1.44;97955.00;;;;110597;1252;41168;-73
2022/04/13 02:34:24;;;;;;;12.70;6.10;;;;;1.40;97955.80;;;;110818;1250;41454;-74
2022/04/13 02:36:54;;;;;;;14.50;6.40;;;;;1.30;97955.00;;;;110828;1250;41154;-72
2022/04/13 02:39:24;;;;;;;14.00;6.30;;;;;1.30;97955.40;;;;110710;1252;41139;-73
2022/04/13 02:41:54;;;;;;;13.50;6.20;;;;;1.30;97960.80;;;;110784;1249;41153;-73
2022/04/13 02:44:23;;;;;;;12.40;5.50;;;;;1.30;97959.40;;;;110907;1253;41606;-70
2022/04/13 02:46:53;;;;;;;12.60;6.10;;;;;1.30;97959.00;;;;110831;1252;41251;-73
2022/04/13 02:49:23;;;;;;;12.20;5.90;;;;;1.30;97958.60;;;;110789;1251;41159;-73
2022/04/13 02:51:53;;;;;;;13.10;6.40;;;;;1.30;97953.80;;;;110772;1250;41309;-73
2022/04/13 02:54:23;;;;;;;11.30;6.00;;;;;1.20;97958.40;;;;110736;1252;42030;-73
2022/04/13 02:56:52;;;;;;;10.80;5.60;;;;;1.20;97964.80;;;;110602;1254;41152;-73
2022/04/13 02:59:22;;;;;;;13.50;6.30;;;;;1.20;97964.20;;;;110831;1251;41146;-73
2022/04/13 03:01:53;;;;;;;13.70;6.00;;;;;1.20;97969.00;;;;110703;1251;41152;-74
2022/04/13 03:04:32;;;;;;;14.40;6.20;;;;;1.20;97971.80;;;;110797;1251;41164;-73
2022/04/13 03:07:02;;;;;;;13.20;6.30;;;;;1.20;97975.80;;;;110884;1251;41273;-73
2022/04/13 03:09:31;;;;;;;15.40;7.70;;;;;1.18;97970.00;;;;110863;1250;41497;-74
2022/04/13 03:12:00;;;;;;;13.70;6.60;;;;;1.10;97967.40;;;;110564;1254;41225;-74
2022/04/13 03:14:30;;;;;;;15.20;6.00;;;;;1.06;97973.80;;;;110796;1252;41153;-74
2022/04/13 03:16:59;;;;;;;12.40;6.20;;;;;1.00;97976.60;;;;110780;1251;41961;-73
2022/04/13 03:19:29;;;;;;;15.60;6.80;;;;;1.00;97979.60;;;;110775;1251;41268;-74
2022/04/13 03:21:58;;;;;;;13.50;6.50;;;;;1.00;97977.40;;;;110720;1252;41951;-74
2022/04/13 03:24:27;;;;;;;16.10;7.30;;;;;1.00;97978.80;;;;110897;1251;41132;-73
2022/04/13 03:26:57;;;;;;;15.30;7.50;;;;;0.90;97983.40;;;;110983;1249;41766;-71
2022/04/13 03:29:28;;;;;;;14.10;6.60;;;;;0.90;97978.80;;;;110910;1249;41125;-73
2022/04/13 03:31:57;;;;;;;14.90;7.00;;;;;0.90;97977.20;;;;110728;1252;40864;-74
2022/04/13 03:34:27;;;;;;;15.30;6.30;;;;;0.90;97979.40;;;;110735;1252;41951;-73
2022/04/13 03:36:57;;;;;;;13.70;6.80;;;;;0.82;97981.80;;;;110826;1252;41903;-72
2022/04/13 03:39:28;;;;;;;20.90;8.00;;;;;0.80;97982.80;;;;111011;1251;41189;-73
2022/04/13 03:41:57;;;;;;;15.20;7.20;;;;;0.80;97984.80;;;;110812;1251;42772;-72
2022/04/13 03:44:27;;;;;;;15.70;7.20;;;;;0.80;97988.00;;;;110727;1251;41147;-72
2022/04/13 03:46:56;;;;;;;14.60;6.60;;;;;0.70;97986.00;;;;110949;1251;41551;-73
2022/04/13 03:49:25;;;;;;;17.70;7.80;;;;;0.70;97988.40;;;;110781;1251;41148;-73
2022/04/13 03:51:54;;;;;;;15.20;7.30;;;;;0.60;97986.80;;;;110792;1252;41618;-73
2022/04/13 03:54:23;;;;;;;16.70;7.20;;;;;0.70;97990.40;;;;110758;1252;41155;-71
2022/04/13 03:56:53;;;;;;;18.40;7.70;;;;;0.70;97987.20;;;;110627;1252;41188;-73
2022/04/13 03:59:23;;;;;;;13.60;5.80;;;;;0.70;97989.60;;;;110777;1252;41165;-73
2022/04/13 04:01:52;;;;;;;14.40;6.50;;;;;0.80;97990.20;;;;110827;1250;41265;-74
2022/04/13 04:04:22;;;;;;;13.10;6.10;;;;;0.78;97990.20;;;;110702;1250;42417;-73
2022/04/13 04:06:51;;;;;;;17.50;6.60;;;;;0.72;97992.00;;;;110740;1252;41167;-73
2022/04/13 04:09:20;;;;;;;14.40;6.30;;;;;0.72;98000.60;;;;110861;1250;41917;-73
2022/04/13 04:11:49;;;;;;;13.10;5.80;;;;;0.80;98005.60;;;;110684;1252;42213;-73
2022/04/13 04:14:18;;;;;;;12.40;6.20;;;;;0.80;98004.20;;;;110799;1252;41808;-73
2022/04/13 04:16:47;;;;;;;15.30;6.80;;;;;0.84;98008.60;;;;110902;1249;41403;-72
2022/04/13 04:19:16;;;;;;;18.30;7.90;;;;;0.80;98004.60;;;;110847;1250;41615;-73
2022/04/13 04:21:45;;;;;;;20.60;7.90;;;;;0.80;98013.20;;;;110801;1252;41161;-73
2022/04/13 04:24:14;;;;;;;16.60;7.50;;;;;0.80;98012.00;;;;110900;1252;41604;-73
2022/04/13 04:26:43;;;;;;;15.60;6.60;;;;;0.90;98016.40;;;;110673;1252;41241;-74
2022/04/13 04:29:12;;;;;;;25.70;8.00;;;;;0.90;98012.80;;;;110615;1251;41161;-73
2022/04/13 04:31:50;;;;;;;16.90;8.20;;;;;1.00;98016.20;;;;110764;1250;41152;-73
2022/04/13 04:34:22;;;;;;;16.70;8.30;;;;;1.06;98019.40;;;;110867;1251;41276;-73
2022/04/13 04:36:51;;;;;;;20.40;10.10;;;;;1.10;98027.80;;;;110755;1252;41151;-73
2022/04/13 04:39:20;;;;;;;16.40;7.80;;;;;1.20;98031.00;;;;110691;1252;40770;-72
2022/04/13 04:41:49;;;;;;;15.00;7.60;;;;;1.30;98034.60;;;;110765;1251;41160;-73
2022/04/13 04:44:18;;;;;;;14.60;7.10;;;;;1.40;98033.60;;;;110681;1252;41161;-72
2022/04/13 04:46:47;;;;;;;14.70;6.80;;;;;1.42;98034.20;;;;110901;1251;41621;-72
2022/04/13 04:49:16;;;;;;;13.40;6.50;;;;;1.50;98036.20;;;;110947;1251;41602;-73
2022/04/13 04:51:45;;;;;;;16.40;6.50;;;;;1.60;98033.80;;;;110899;1252;41534;-73
2022/04/13 04:54:15;;;;;;;16.80;7.50;;;;;1.70;98037.40;;;;110991;1251;41159;-72
2022/04/13 04:56:45;;;;;;;20.10;8.80;;;;;1.80;98044.00;;;;110871;1249;41467;-73
2022/04/13 04:59:15;;;;;;;23.70;10.50;;;;;1.90;98045.60;;;;110716;1252;41167;-72
2022/04/13 05:01:44;;;;;;;23.90;9.40;;;;;1.90;98047.20;;;;110965;1251;41268;-73
2022/04/13 05:04:13;;;;;;;27.60;12.50;;;;;2.00;98045.40;;;;110941;1249;41321;-74
2022/04/13 05:06:50;;;;;;;27.30;12.60;;;;;2.10;98042.20;;;;110908;1251;41409;-74
2022/04/13 05:09:20;;;;;;;33.20;14.10;;;;;2.20;98042.40;;;;110955;1249;41268;-73
2022/04/13 05:11:49;;;;;;;32.30;13.70;;;;;2.26;98047.40;;;;110919;1250;41371;-73
2022/04/13 05:14:20;;;;;;;23.60;11.10;;;;;2.30;98050.80;;;;110637;1252;40900;-73
2022/04/13 05:16:49;;;;;;;;;;;;;2.40;98051.40;;;;110846;1252;41723;-73
2022/04/13 05:19:18;;;;;;;19.00;9.50;;;;;2.50;98051.60;;;;110880;1252;41651;-72
2022/04/13 05:21:47;;;;;;;15.80;8.40;;;;;2.60;98051.40;;;;110757;1253;41143;-72
2022/04/13 05:24:16;;;;;;;17.10;9.00;;;;;2.70;98046.80;;;;110922;1251;42007;-71
2022/04/13 05:26:45;;;;;;;21.30;9.70;;;;;2.84;98046.60;;;;110811;1252;41148;-73
2022/04/13 05:29:14;;;;;;;19.00;9.40;;;;;3.00;98045.60;;;;110764;1252;41267;-72
2022/04/13 05:31:43;;;;;;;20.40;9.70;;;;;3.10;98046.20;;;;110679;1252;41179;-73
2022/04/13 05:34:12;;;;;;;20.40;9.50;;;;;3.20;98047.60;;;;110796;1252;41138;-73
2022/04/13 05:36:40;;;;;;;20.90;9.60;;;;;3.30;98051.00;;;;110759;1252;40955;-73
2022/04/13 05:39:10;;;;;;;19.30;9.70;;;;;3.38;98050.20;;;;110918;1252;41150;-74
2022/04/13 05:41:40;;;;;;;21.20;8.40;;;;;3.40;98054.20;;;;110894;1251;41161;-72
2022/04/13 05:44:09;;;;;;;19.20;9.00;;;;;3.48;98049.40;;;;110914;1249;41160;-73
2022/04/13 05:46:38;;;;;;;20.30;9.80;;;;;3.50;98053.80;;;;110718;1252;41166;-73
2022/04/13 05:49:07;;;;;;;21.90;9.60;;;;;3.60;98044.80;;;;110717;1252;41361;-71
2022/04/13 05:51:35;;;;;;;18.70;9.10;;;;;3.60;98052.20;;;;110923;1252;41140;-73
2022/04/13 05:54:05;;;;;;;20.80;9.40;;;;;3.70;98040.40;;;;110829;1252;42067;-73
2022/04/13 05:56:34;;;;;;;17.30;8.60;;;;;3.80;98053.00;;;;110656;1252;41782;-73
2022/04/13 05:59:03;;;;;;;19.80;8.30;;;;;3.88;98052.60;;;;110785;1252;41158;-73
2022/04/13 06:01:31;;;;;;;17.30;8.40;;;;;4.00;98045.00;;;;110824;1253;42242;-73
2022/04/13 06:04:01;;;;;;;18.60;8.50;;;;;4.10;98051.00;;;;110854;1252;41536;-73
2022/04/13 06:06:30;;;;;;;19.70;8.80;;;;;4.30;98049.80;;;;110875;1250;41626;-73
2022/04/13 06:08:59;;;;;;;16.40;7.70;;;;;4.42;98050.60;;;;111001;1250;41900;-73
2022/04/13 06:11:28;;;;;;;15.50;7.80;;;;;4.58;98046.60;;;;110955;1251;41690;-73
2022/04/13 06:13:56;;;;;;;17.70;8.10;;;;;4.70;98046.00;;;;110769;1252;41155;-72
2022/04/13 06:16:25;;;;;;;14.80;6.60;;;;;4.88;98049.40;;;;110922;1252;41131;-72
2022/04/13 06:18:54;;;;;;;17.10;7.80;;;;;5.00;98047.00;;;;110700;1252;41151;-72
2022/04/13 06:21:23;;;;;;;15.70;7.20;;;;;5.12;98047.40;;;;110849;1252;41167;-72
2022/04/13 06:23:52;;;;;;;15.10;7.40;;;;;5.30;98043.80;;;;110902;1249;41257;-73
2022/04/13 06:26:21;;;;;;;14.60;7.10;;;;;5.44;98033.40;;;;110525;1252;327850;-72
2022/04/13 06:28:50;;;;;;;16.60;7.20;;;;;5.64;98035.60;;;;110664;1252;41369;-71
2022/04/13 06:31:19;;;;;;;16.70;7.70;;;;;5.82;98037.00;;;;110703;1252;41164;-72
2022/04/13 06:33:52;;;;;;;18.50;8.20;;;;;6.00;98032.20;;;;110948;1249;41159;-73
2022/04/13 06:36:21;;;;;;;16.80;7.50;;;;;6.20;98026.60;;;;110854;1252;41592;-73
2022/04/13 06:38:50;;;;;;;12.70;6.20;;;;;6.30;98022.00;;;;110789;1252;41541;-72
2022/04/13 06:41:21;;;;;;;13.50;6.20;;;;;6.40;98027.20;;;;110880;1252;42395;-72
2022/04/13 06:43:52;;;;;;;15.20;6.40;;;;;6.56;98024.40;;;;110912;1249;41170;-73
2022/04/13 06:46:21;;;;;;;14.80;5.40;;;;;6.70;98022.20;;;;110608;1254;41161;-72
2022/04/13 06:48:50;;;;;;;12.50;4.90;;;;;6.80;98022.00;;;;110841;1252;41997;-72
2022/04/13 06:51:19;;;;;;;10.10;4.60;;;;;7.00;98019.60;;;;110878;1250;41148;-69
2022/04/13 06:53:50;;;;;;;9.70;4.30;;;;;7.10;98020.80;;;;110925;1251;41197;-72
2022/04/13 06:56:18;;;;;;;11.00;5.00;;;;;7.24;98018.60;;;;110902;1252;41474;-72
2022/04/13 06:58:48;;;;;;;10.00;4.70;;;;;7.40;98025.20;;;;110956;1251;41175;-72
2022/04/13 07:01:17;;;;;;;10.40;4.50;;;;;7.50;98017.00;;;;110959;1251;41402;-71
2022/04/13 07:03:46;;;;;;;10.20;3.80;;;;;7.66;98021.00;;;;110937;1252;41869;-72
2022/04/13 07:06:15;;;;;;;10.60;3.90;;;;;7.80;98020.00;;;;110798;1252;41376;-72
2022/04/13 07:09:04;;;;;;;13.00;5.00;;;;;8.00;98025.40;;;;110868;1252;41371;-74
2022/04/13 07:11:33;;;;;;;11.80;4.40;;;;;8.20;98023.00;;;;110781;1252;41371;-71
2022/04/13 07:14:02;;;;;;;11.30;4.60;;;;;8.36;98016.00;;;;110940;1252;41503;-73
2022/04/13 07:16:31;;;;;;;9.50;4.30;;;;;8.50;98019.40;;;;110987;1252;41415;-72
2022/04/13 07:19:00;;;;;;;10.60;4.20;;;;;8.66;98007.20;;;;110792;1251;41138;-72
2022/04/13 07:21:29;;;;;;;9.20;4.10;;;;;8.80;98008.60;;;;110673;1252;40905;-71
2022/04/13 07:24:18;;;;;;;9.30;3.70;;;;;8.90;98009.20;;;;110896;1252;41145;-72
2022/04/13 07:26:47;;;;;;;7.40;3.10;;;;;9.00;98006.40;;;;110854;1252;41140;-71
2022/04/13 07:29:16;;;;;;;7.60;3.00;;;;;9.10;98011.60;;;;110816;1252;41150;-71
2022/04/13 07:31:45;;;;;;;8.50;3.20;;;;;9.24;98009.20;;;;110899;1252;41148;-72
2022/04/13 07:34:14;;;;;;;8.80;3.60;;;;;9.40;98008.80;;;;110826;1250;41156;-72
2022/04/13 07:36:43;;;;;;;7.40;3.10;;;;;9.40;98005.00;;;;110721;1252;41285;-73
2022/04/13 07:39:12;;;;;;;7.70;3.10;;;;;9.44;98004.40;;;;110773;1252;41133;-73
2022/04/13 07:41:41;;;;;;;8.90;3.50;;;;;9.50;98004.60;;;;110921;1251;41263;-72
2022/04/13 07:44:12;;;;;;;7.20;3.00;;;;;9.50;98004.40;;;;110867;1252;41161;-72
2022/04/13 07:46:41;;;;;;;7.50;3.10;;;;;9.60;98002.20;;;;110848;1251;41153;-71
2022/04/13 07:49:11;;;;;;;9.90;3.10;;;;;9.80;98009.60;;;;110751;1252;41738;-71
2022/04/13 07:51:40;;;;;;;6.20;2.80;;;;;10.04;98006.00;;;;110844;1252;41179;-73
2022/04/13 07:54:09;;;;;;;8.60;2.90;;;;;10.24;98004.60;;;;110738;1253;41744;-72
2022/04/13 07:56:59;;;;;;;8.20;3.10;;;;;10.50;98007.60;;;;110866;1252;41258;-73
2022/04/13 07:59:28;;;;;;;6.90;2.80;;;;;10.70;98005.20;;;;110900;1251;41195;-69
2022/04/13 08:01:57;;;;;;;9.20;3.30;;;;;10.90;98000.80;;;;110913;1251;41190;-60
2022/04/13 08:04:26;;;;;;;7.10;2.80;;;;;11.14;98001.80;;;;110741;1252;41268;-61
2022/04/13 08:06:56;;;;;;;8.00;2.70;;;;;11.40;98000.60;;;;110723;1252;41306;-60
2022/04/13 08:09:25;;;;;;;9.10;3.40;;;;;11.60;97998.40;;;;110632;1252;41376;-60
2022/04/13 08:11:56;;;;;;;7.90;3.10;;;;;11.80;97990.80;;;;110538;1253;41625;-60
2022/04/13 08:14:25;;;;;;;7.70;3.00;;;;;11.90;97994.40;;;;110669;1252;42392;-61
2022/04/13 08:16:54;;;;;;;7.40;2.80;;;;;12.02;97991.20;;;;110695;1251;43092;-61
2022/04/13 08:19:23;;;;;;;8.60;3.20;;;;;12.20;97987.00;;;;110557;1253;41197;-61
2022/04/13 08:21:53;;;;;;;10.30;3.20;;;;;12.36;97986.80;;;;110551;1253;41825;-61
2022/04/13 08:24:22;;;;;;;8.40;3.00;;;;;12.50;97979.00;;;;110595;1253;41620;-61
2022/04/13 08:26:51;;;;;;;6.90;3.10;;;;;12.60;97980.20;;;;110680;1253;41173;-61
2022/04/13 08:29:21;;;;;;;7.90;3.10;;;;;12.70;97979.40;;;;110653;1253;41203;-61
2022/04/13 08:31:50;;;;;;;7.30;3.20;;;;;12.80;97975.00;;;;110664;1251;41162;-61
2022/04/13 08:34:20;;;;;;;7.20;2.90;;;;;12.90;97973.60;;;;110772;1251;41833;-60
2022/04/13 08:36:49;;;;;;;7.30;2.50;;;;;13.00;97977.80;;;;110737;1251;41168;-61
2022/04/13 08:39:18;;;;;;;5.50;2.50;;;;;13.10;97982.80;;;;110577;1253;42099;-61
2022/04/13 08:41:51;;;;;;;7.30;2.70;;;;;13.20;97975.40;;;;110632;1252;41616;-60
2022/04/13 08:44:35;;;;;;;5.30;2.20;;;;;13.30;97975.20;;;;110566;1254;41150;-60
2022/04/13 08:47:07;;;;;;;6.40;2.50;;;;;13.48;97975.20;;;;110715;1251;41630;-60
2022/04/13 08:49:39;;;;;;;7.40;2.70;;;;;13.60;97974.80;;;;110616;1251;42388;-60
2022/04/13 08:52:09;;;;;;;5.80;2.50;;;;;13.50;97968.20;;;;110737;1253;41882;-60
2022/04/13 08:54:53;;;;;;;5.00;2.10;;;;;13.58;97974.80;;;;110620;1250;41776;-60
2022/04/13 08:57:25;;;;;;;7.50;2.70;;;;;13.80;97967.40;;;;110635;1252;41221;-61
2022/04/13 09:00:24;;;;;;;6.20;2.50;;;;;14.00;97967.00;;;;110666;1254;41151;-60
2022/04/13 09:03:06;;;;;;;5.70;2.30;;;;;14.30;97964.60;;;;110578;1253;41228;-60
2022/04/13 09:05:44;;;;;;;8.40;3.10;;;;;14.60;97961.20;;;;110618;1252;41176;-60
2022/04/13 09:08:24;;;;;;;11.80;3.10;;;;;14.90;97947.20;;;;110588;1253;42429;-60
2022/04/13 09:10:54;;;;;;;10.10;2.80;;;;;15.04;97950.80;;;;110691;1251;41133;-60
2022/04/13 09:13:26;;;;;;;6.70;2.60;;;;;15.42;97942.80;;;;110778;1251;41238;-60
2022/04/13 09:15:57;;;;;;;6.20;2.30;;;;;16.08;97937.40;;;;110679;1252;41146;-60
2022/04/13 09:18:26;;;;;;;4.80;2.10;;;;;17.66;97933.60;;;;110781;1251;41158;-59
2022/04/13 09:20:55;;;;;;;6.10;2.40;;;;;19.94;97909.00;;;;110763;1251;41156;-62
2022/04/13 09:23:25;;;;;;;5.40;2.30;;;;;22.02;97899.20;;;;110726;1251;41607;-61
2022/04/13 09:25:56;;;;;;;6.60;2.30;;;;;23.86;97891.20;;;;110475;1253;41326;-61
2022/04/13 09:28:26;;;;;;;8.70;2.80;;;;;25.30;97886.20;;;;110690;1252;41259;-61
2022/04/13 09:30:55;;;;;;;6.10;2.50;;;;;26.54;97883.00;;;;110701;1251;41265;-60
2022/04/13 09:33:25;;;;;;;8.50;2.60;;;;;27.14;97883.00;;;;110754;1253;41265;-60
2022/04/13 09:36:00;;;;;;;6.50;2.20;;;;;27.90;97869.20;;;;110764;1251;41175;-60
2022/04/13 09:38:30;;;;;;;4.90;2.10;;;;;28.22;97871.00;;;;110699;1251;41290;-61
2022/04/13 09:41:09;;;;;;;12.80;2.40;;;;;28.18;97865.80;;;;110519;1252;41460;-61
2022/04/13 09:43:39;;;;;;;11.40;2.60;;;;;27.94;97871.00;;;;110718;1252;41147;-61
2022/04/13 09:46:26;;;;;;;6.50;2.00;;;;;27.48;97876.20;;;;110670;1251;41152;-61
2022/04/13 09:49:14;;;;;;;4.70;1.90;;;;;27.30;97870.40;;;;110718;1252;41203;-62
2022/04/13 09:51:52;;;;;;;4.10;1.80;;;;;27.80;97868.20;;;;110747;1252;41384;-61
2022/04/13 09:54:24;;;;;;;;;;;;;28.80;97868.00;;;;110617;1253;41161;-60
2022/04/13 09:56:54;;;;;;;4.70;1.60;;;;;30.02;97860.00;;;;110583;1254;41176;-61
2022/04/13 09:59:30;;;;;;;5.40;1.80;;;;;31.02;97865.40;;;;110795;1253;41525;-60
2022/04/13 10:01:59;;;;;;;6.60;2.20;;;;;32.20;97863.40;;;;110552;1254;41242;-60
2022/04/13 10:04:30;;;;;;;5.70;1.90;;;;;32.80;97854.00;;;;110715;1254;42181;-60
2022/04/13 10:07:18;;;;;;;7.70;2.60;;;;;33.02;97860.00;;;;110705;1252;41134;-60
2022/04/13 10:09:47;;;;;;;5.40;1.90;;;;;33.30;97857.60;;;;110597;1252;41483;-60
2022/04/13 10:12:16;;;;;;;4.30;1.70;;;;;33.52;97856.40;;;;110590;1252;41173;-61
2022/04/13 10:14:46;;;;;;;6.70;1.60;;;;;34.04;97860.40;;;;110612;1252;41160;-60
2022/04/13 10:17:16;;;;;;;3.80;1.40;;;;;34.80;97847.00;;;;110642;1252;41429;-61
2022/04/13 10:19:54;;;;;;;;;;;;;35.50;97856.00;;;;110663;1251;41245;-61
2022/04/13 10:22:23;;;;;;;4.10;1.70;;;;;35.96;97852.20;;;;110632;1252;41941;-62
2022/04/13 10:24:53;;;;;;;3.90;1.60;;;;;36.60;97853.00;;;;110774;1251;41617;-60
2022/04/13 10:27:25;;;;;;;5.50;1.70;;;;;37.16;97850.80;;;;110641;1251;41383;-60
2022/04/13 10:30:05;;;;;;;2.90;1.40;;;;;37.24;97846.40;;;;110620;1252;41164;-60
2022/04/13 10:32:36;;;;;;;5.70;1.70;;;;;37.62;97848.40;;;;110703;1251;41723;-61
2022/04/13 10:35:07;;;;;;;4.70;1.50;;;;;37.60;97848.20;;;;110609;1251;41486;-61
2022/04/13 10:37:36;;;;;;;4.60;1.70;;;;;37.14;97842.80;;;;110653;1251;41398;-60
2022/04/13 10:40:07;;;;;;;3.30;1.40;;;;;37.40;97846.00;;;;110645;1251;41650;-60
2022/04/13 10:42:40;;;;;;;4.40;1.70;;;;;37.90;97840.40;;;;110699;1251;41283;-60
2022/04/13 10:45:10;;;;;;;3.40;1.40;;;;;38.50;97838.40;;;;110620;1252;41690;-61
2022/04/13 10:47:48;;;;;;;5.10;1.50;;;;;38.80;97838.20;;;;110758;1251;42370;-61
2022/04/13 10:50:24;;;;;;;3.20;1.50;;;;;39.16;97837.20;;;;110624;1251;41236;-61
2022/04/13 10:53:00;;;;;;;3.60;1.60;;;;;39.60;97833.60;;;;110564;1253;41131;-61
2022/04/13 10:55:33;;;;;;;3.20;1.50;;;;;39.80;97834.00;;;;110759;1251;42473;-61
2022/04/13 10:58:19;;;;;;;4.90;1.70;;;;;40.16;97828.00;;;;110766;1251;41147;-60
2022/04/13 11:00:50;;;;;;;3.40;1.60;;;;;40.30;97836.00;;;;110823;1252;41362;-61
2022/04/13 11:03:22;;;;;;;4.10;1.40;;;;;40.70;97836.80;;;;110697;1251;40787;-61
2022/04/13 11:05:52;;;;;;;6.20;1.80;;;;;41.10;97832.60;;;;110765;1251;41160;-60
2022/04/13 11:08:30;;;;;;;4.20;1.60;;;;;40.74;97835.60;;;;110637;1252;41262;-61
2022/04/13 11:10:59;;;;;;;5.20;1.60;;;;;40.54;97830.60;;;;110691;1252;41611;-61
2022/04/13 11:13:32;;;;;;;2.40;1.30;;;;;40.28;97822.40;;;;110762;1249;41291;-61
2022/04/13 11:16:31;;;;;;;3.80;1.60;;;;;40.20;97823.40;;;;110783;1251;41924;-62
2022/04/13 11:19:06;;;;;;;6.10;1.80;;;;;40.46;97825.60;;;;109981;1260;41134;-61
2022/04/13 11:21:58;;;;;;;4.90;1.50;;;;;40.78;97820.40;;;;110125;1257;41935;-62
2022/04/13 11:24:42;;;;;;;5.80;1.80;;;;;41.00;97817.40;;;;110271;1257;41140;-61
2022/04/13 11:27:12;;;;;;;4.80;1.70;;;;;40.32;97817.20;;;;110158;1259;41285;-63
2022/04/13 11:29:44;;;;;;;5.00;1.60;;;;;40.02;97815.40;;;;110056;1260;41601;-63
2022/04/13 11:32:15;;;;;;;3.80;1.50;;;;;39.76;97820.20;;;;110187;1257;41162;-62
2022/04/13 11:34:48;;;;;;;3.90;1.50;;;;;39.88;97814.20;;;;110153;1257;41169;-62
2022/04/13 11:37:25;;;;;;;4.30;1.60;;;;;37.86;97812.00;;;;110229;1257;41855;-61
2022/04/13 11:40:13;;;;;;;4.10;1.60;;;;;37.50;97823.40;;;;110146;1257;41235;-61
2022/04/13 11:42:45;;;;;;;3.90;1.60;;;;;38.08;97816.20;;;;110129;1257;41148;-62
2022/04/13 11:45:16;;;;;;;4.70;1.70;;;;;38.62;97814.40;;;;110152;1257;41244;-62
2022/04/13 11:47:51;;;;;;;3.60;1.50;;;;;39.36;97814.20;;;;110137;1260;41265;-62
2022/04/13 11:50:22;;;;;;;2.90;1.40;;;;;40.10;97809.60;;;;110180;1257;41198;-63
2022/04/13 11:53:06;;;;;;;3.30;1.50;;;;;40.50;97807.80;;;;110234;1257;41272;-62
2022/04/13 11:55:41;;;;;;;2.20;1.40;;;;;40.50;97807.60;;;;110377;1251;41888;-63
2022/04/13 11:58:12;;;;;;;3.10;1.40;;;;;40.24;97807.60;;;;110770;1251;41898;-62
2022/04/13 12:00:52;;;;;;;4.60;1.50;;;;;39.86;97809.40;;;;110838;1250;41430;-62
2022/04/13 12:03:34;;;;;;;2.30;1.40;;;;;38.22;97810.20;;;;110788;1251;41159;-62
2022/04/13 12:06:19;;;;;;;4.60;1.50;;;;;38.10;97800.20;;;;110658;1251;41299;-62
2022/04/13 12:08:55;;;;;;;2.90;1.50;;;;;38.60;97803.80;;;;110632;1251;41161;-62
2022/04/13 12:11:41;;;;;;;5.20;1.80;;;;;37.96;97803.20;;;;110839;1251;41157;-63
2022/04/13 12:14:13;;;;;;;6.30;1.40;;;;;37.20;97801.20;;;;110632;1251;42426;-62
2022/04/13 12:16:45;;;;;;;4.90;1.60;;;;;36.96;97804.40;;;;110597;1253;42094;-62
2022/04/13 12:19:17;;;;;;;3.40;1.50;;;;;37.10;97800.20;;;;110671;1251;41741;-63
2022/04/13 12:21:47;;;;;;;4.00;1.60;;;;;37.12;97798.80;;;;110602;1251;41165;-62
2022/04/13 12:24:16;;;;;;;4.60;1.90;;;;;36.92;97804.20;;;;110794;1251;41118;-62
2022/04/13 12:26:46;;;;;;;7.40;1.60;;;;;37.00;97793.00;;;;110734;1251;41601;-62
2022/04/13 12:29:15;;;;;;;;;;;;;37.50;97796.60;;;;110636;1252;41153;-62